Time;durP1;ratioP1;P1;durP2;ratioP2;P2;SDS_P1;SDS_P2;PMS_P1;PMS_P2;Temp;Humidity;BMP_temperature;BMP_pressure;BME280_temperature;BME280_humidity;BME280_pressure;Samples;Min_cycle;Max_cycle;Signal;HPM_P1;HPM_P2
2022/07/24 00:00:16;;;;;;;8.00;4.85;;;;;;;25.89;53.98;100272.38;5590094;31;34532;-70
2022/07/24 00:03:22;;;;;;;6.93;4.93;;;;;;;26.00;54.04;100301.16;5590063;31;33985;-70
2022/07/24 00:06:31;;;;;;;7.70;4.90;;;;;;;26.18;53.37;100305.28;5589199;31;33412;-71
2022/07/24 00:09:33;;;;;;;8.27;4.75;;;;;;;26.07;53.77;100307.16;5589187;31;34649;-70
2022/07/24 00:12:36;;;;;;;7.20;5.03;;;;;;;26.00;53.64;100301.16;5588860;31;33709;-70
2022/07/24 00:15:40;;;;;;;6.12;4.87;;;;;;;26.11;54.04;100310.97;5589956;31;35202;-71
2022/07/24 00:18:42;;;;;;;8.15;5.15;;;;;;;26.03;54.42;100316.13;5589861;31;34292;-70
2022/07/24 00:21:47;;;;;;;6.55;4.97;;;;;;;26.19;53.69;100310.41;5589988;31;34436;-70
2022/07/24 00:24:50;;;;;;;6.60;5.00;;;;;;;26.25;53.79;100301.22;5589982;31;34080;-70
2022/07/24 00:27:53;;;;;;;7.28;5.22;;;;;;;26.17;54.74;100309.91;5589781;31;34101;-71
2022/07/24 00:30:56;;;;;;;8.35;5.40;;;;;;;26.14;55.32;100315.06;5589784;31;35154;-70
2022/07/24 00:33:59;;;;;;;9.13;5.10;;;;;;;25.94;55.58;100316.69;5588835;31;33183;-70
2022/07/24 00:37:02;;;;;;;6.53;5.15;;;;;;;25.82;56.08;100313.41;5589677;31;34865;-70
2022/07/24 00:40:06;;;;;;;7.70;5.32;;;;;;;25.82;56.24;100321.56;5589675;31;34554;-70
2022/07/24 00:43:08;;;;;;;7.53;4.97;;;;;;;25.72;56.63;100313.38;5563319;31;33195;-70
2022/07/24 00:46:11;;;;;;;10.55;5.80;;;;;;;25.70;56.87;100317.47;5576165;31;33996;-70
2022/07/24 00:49:19;;;;;;;6.30;5.22;;;;;;;25.73;56.96;100327.78;5589582;31;34297;-69
2022/07/24 00:52:25;;;;;;;7.60;5.10;;;;;;;25.72;57.19;100324.25;5589621;31;35196;-70
2022/07/24 00:55:29;;;;;;;5.80;4.87;;;;;;;25.78;56.37;100327.78;5576105;31;34060;-70
2022/07/24 00:58:33;;;;;;;11.98;5.97;;;;;;;25.70;56.50;100337.31;5589607;31;33842;-71
2022/07/24 01:01:36;;;;;;;10.13;5.62;;;;;;;25.73;56.72;100339.47;5589557;31;34373;-71
2022/07/24 01:04:39;;;;;;;12.23;5.80;;;;;;;25.61;57.38;100335.37;5589045;31;33872;-68
2022/07/24 01:07:49;;;;;;;7.25;5.03;;;;;;;25.56;57.57;100338.06;5589357;31;34953;-70
2022/07/24 01:10:52;;;;;;;8.77;4.90;;;;;;;25.61;57.65;100332.66;5589396;31;33847;-70
2022/07/24 01:13:56;;;;;;;10.90;5.15;;;;;;;25.52;58.21;100333.13;5589423;31;34525;-70
2022/07/24 01:16:58;;;;;;;9.70;5.32;;;;;;;25.42;58.15;100324.94;5589377;31;33953;-68
2022/07/24 01:20:06;;;;;;;9.30;5.65;;;;;;;25.40;58.16;100312.72;5588400;31;32766;-68
2022/07/24 01:23:09;;;;;;;7.47;5.05;;;;;;;25.36;58.20;100315.16;5589266;31;34177;-70
2022/07/24 01:26:12;;;;;;;10.60;5.22;;;;;;;25.20;58.48;100315.37;5575811;31;33916;-70
2022/07/24 01:29:15;;;;;;;7.35;5.18;;;;;;;25.21;58.95;100325.16;5589249;31;34532;-70
2022/07/24 01:32:18;;;;;;;8.95;5.22;;;;;;;25.12;59.03;100321.31;5589123;31;33973;-69
2022/07/24 01:35:21;;;;;;;7.12;5.03;;;;;;;25.02;59.29;100320.19;5589076;31;33965;-66
2022/07/24 01:38:25;;;;;;;6.90;4.85;;;;;;;24.98;59.63;100324.47;5589248;31;34864;-70
2022/07/24 01:41:27;;;;;;;7.95;4.95;;;;;;;24.88;60.00;100329.88;5587989;31;32942;-68
2022/07/24 01:44:30;;;;;;;8.07;5.07;;;;;;;24.83;60.40;100320.88;5588411;31;32616;-69
2022/07/24 01:47:33;;;;;;;6.35;5.07;;;;;;;24.80;60.60;100321.38;5575422;31;32365;-70
2022/07/24 01:50:35;;;;;;;9.55;5.25;;;;;;;24.75;60.42;100316.72;5588850;31;34044;-70
2022/07/24 01:53:38;;;;;;;7.62;4.78;;;;;;;24.74;60.06;100315.09;5594837;31;34021;-69
2022/07/24 01:56:41;;;;;;;7.07;4.80;;;;;;;24.87;59.52;100308.44;5594655;31;34551;-68
2022/07/24 01:59:44;;;;;;;6.72;4.37;;;;;;;24.83;59.01;100301.87;5581581;31;34758;-70
2022/07/24 02:02:50;;;;;;;8.40;4.37;;;;;;;24.84;59.03;100298.06;5595514;31;33983;-69
2022/07/24 02:05:53;;;;;;;6.85;4.87;;;;;;;24.79;59.58;100285.28;5595206;31;33914;-69
2022/07/24 02:08:56;;;;;;;8.05;4.62;;;;;;;24.70;61.65;100297.72;5595056;31;34533;-69
2022/07/24 02:11:59;;;;;;;6.32;4.60;;;;;;;24.64;59.54;100301.50;5594369;31;34117;-70
2022/07/24 02:15:04;;;;;;;5.65;4.43;;;;;;;24.58;59.30;100308.78;5595365;31;33879;-70
2022/07/24 02:18:07;;;;;;;10.30;4.62;;;;;;;24.59;59.14;100310.38;5594980;31;34025;-67
2022/07/24 02:21:10;;;;;;;6.18;4.30;;;;;;;24.57;59.40;100318.00;5595162;31;34555;-69
2022/07/24 02:24:13;;;;;;;7.45;4.45;;;;;;;24.50;59.03;100314.66;5594932;31;33854;-70
2022/07/24 02:27:16;;;;;;;11.65;3.87;;;;;;;24.62;58.92;100319.91;5594918;31;33968;-68
2022/07/24 02:30:21;;;;;;;6.78;4.68;;;;;;;24.68;58.45;100316.16;5590079;31;147821;-69
2022/07/24 02:33:25;;;;;;;6.90;4.40;;;;;;;24.59;58.83;100315.81;5594660;31;34033;-71
2022/07/24 02:36:28;;;;;;;7.45;4.53;;;;;;;24.53;59.17;100310.63;5593886;31;34608;-70
2022/07/24 02:39:30;;;;;;;8.32;4.12;;;;;;;24.55;58.96;100312.00;5594378;31;34200;-70
2022/07/24 02:42:34;;;;;;;7.18;4.20;;;;;;;24.51;59.33;100304.63;5594442;31;34402;-70
2022/07/24 02:45:36;;;;;;;8.60;4.40;;;;;;;24.58;58.54;100307.97;5594806;31;34011;-70
2022/07/24 02:48:39;;;;;;;7.47;4.15;;;;;;;24.58;58.37;100308.78;5594365;31;35376;-69
2022/07/24 02:51:42;;;;;;;6.78;4.40;;;;;;;24.58;58.23;100302.53;5594538;31;34069;-70
2022/07/24 02:54:47;;;;;;;7.22;4.18;;;;;;;24.61;58.13;100302.00;5594452;31;35204;-71
2022/07/24 02:57:49;;;;;;;7.25;4.57;;;;;;;24.58;58.18;100289.78;5594271;31;33868;-69
2022/07/24 03:00:52;;;;;;;8.40;4.37;;;;;;;24.57;58.38;100293.56;5594173;31;34058;-69
2022/07/24 03:03:55;;;;;;;7.55;4.35;;;;;;;24.55;58.52;100289.47;5591158;31;34512;-69
2022/07/24 03:06:58;;;;;;;5.75;3.97;;;;;;;24.50;58.45;100298.41;5590593;31;35332;-69
2022/07/24 03:10:00;;;;;;;6.22;4.03;;;;;;;24.48;58.51;100303.28;5590387;31;34140;-70
2022/07/24 03:13:05;;;;;;;6.35;4.75;;;;;;;24.42;58.80;100303.50;5590500;31;33872;-67
2022/07/24 03:16:07;;;;;;;7.55;4.45;;;;;;;24.42;58.94;100306.22;5590450;31;34135;-69
2022/07/24 03:19:10;;;;;;;5.53;4.20;;;;;;;24.39;59.40;100302.13;5589683;31;32501;-70
2022/07/24 03:22:13;;;;;;;7.40;4.65;;;;;;;24.29;59.45;100293.09;5590451;31;34061;-67
2022/07/24 03:25:16;;;;;;;6.37;4.75;;;;;;;24.18;59.81;100279.47;5590810;31;33970;-68
2022/07/24 03:28:18;;;;;;;7.15;4.32;;;;;;;24.18;60.04;100289.50;5590248;31;34138;-70
2022/07/24 03:31:21;;;;;;;6.55;4.40;;;;;;;24.14;60.04;100291.87;5590254;31;34051;-69
2022/07/24 03:34:24;;;;;;;7.03;4.70;;;;;;;24.29;59.73;100298.53;5589472;31;33638;-70
2022/07/24 03:37:28;;;;;;;6.62;4.40;;;;;;;24.15;60.19;100284.56;5590419;31;33866;-70
2022/07/24 03:40:33;;;;;;;6.93;4.10;;;;;;;24.16;60.21;100288.88;5590151;31;34974;-69
2022/07/24 03:43:36;;;;;;;6.47;4.30;;;;;;;24.24;59.94;100289.28;5590216;31;34622;-69
2022/07/24 03:46:39;;;;;;;7.32;4.35;;;;;;;24.19;60.14;100297.38;5589688;31;33919;-70
2022/07/24 03:49:42;;;;;;;9.75;4.28;;;;;;;24.25;59.93;100288.19;5590101;31;33860;-69
2022/07/24 03:52:44;;;;;;;5.20;4.10;;;;;;;24.30;59.79;100300.16;5589591;31;33993;-69
2022/07/24 03:55:47;;;;;;;6.87;4.28;;;;;;;24.23;59.67;100303.09;5590190;31;34542;-69
2022/07/24 03:58:50;;;;;;;11.02;4.60;;;;;;;24.15;60.05;100298.94;5590053;31;34376;-70
2022/07/24 04:01:53;;;;;;;8.82;4.32;;;;;;;24.20;59.98;100290.88;5589367;31;33893;-71
2022/07/24 04:04:55;;;;;;;6.43;4.22;;;;;;;24.12;60.43;100295.91;5590091;31;34025;-69
2022/07/24 04:07:58;;;;;;;6.97;4.40;;;;;;;24.09;60.58;100294.53;5589979;31;33908;-71
2022/07/24 04:11:01;;;;;;;8.13;4.78;;;;;;;24.07;60.94;100290.44;5589894;31;34546;-68
2022/07/24 04:14:04;;;;;;;7.57;4.50;;;;;;;24.04;61.12;100294.50;5589652;31;34414;-69
2022/07/24 04:17:07;;;;;;;5.82;4.28;;;;;;;24.12;61.40;100295.91;5590237;31;33898;-70
2022/07/24 04:20:10;;;;;;;7.68;4.60;;;;;;;24.00;61.54;100296.09;5589165;31;34050;-69
2022/07/24 04:23:14;;;;;;;8.25;4.78;;;;;;;24.13;61.49;100316.53;5590204;31;34233;-69
2022/07/24 04:26:17;;;;;;;6.18;4.45;;;;;;;24.01;61.99;100302.34;5576126;31;34080;-69
2022/07/24 04:29:20;;;;;;;6.85;4.75;;;;;;;24.09;61.84;100310.81;5589789;31;34032;-69
2022/07/24 04:32:25;;;;;;;7.87;4.37;;;;;;;24.32;61.26;100311.56;5588988;31;33929;-68
2022/07/24 04:35:28;;;;;;;8.85;4.50;;;;;;;24.46;61.18;100326.31;5588891;31;33873;-68
2022/07/24 04:38:32;;;;;;;10.27;5.18;;;;;;;24.44;61.01;100323.88;5576042;31;34680;-68
2022/07/24 04:41:35;;;;;;;12.48;4.95;;;;;;;24.42;61.19;100326.00;5588807;31;34506;-66
2022/07/24 04:44:38;;;;;;;7.32;4.70;;;;;;;24.31;61.96;100329.72;5589708;31;33836;-69
2022/07/24 04:47:41;;;;;;;6.55;4.87;;;;;;;24.56;61.45;100346.19;5588410;31;33972;-69
2022/07/24 04:50:44;;;;;;;7.22;4.32;;;;;;;24.58;61.61;100345.94;5589652;31;34097;-69
2022/07/24 04:53:47;;;;;;;5.75;4.65;;;;;;;24.70;60.96;100357.41;5589638;31;34020;-70
2022/07/24 04:56:49;;;;;;;9.85;5.22;;;;;;;24.67;61.42;100357.94;5589462;31;34065;-68
2022/07/24 04:59:52;;;;;;;7.85;4.97;;;;;;;24.27;62.98;100358.41;5589184;31;34082;-70
2022/07/24 05:02:54;;;;;;;7.22;4.82;;;;;;;24.19;63.56;100364.31;5589558;31;34672;-69
2022/07/24 05:05:57;;;;;;;7.20;4.80;;;;;;;24.04;64.41;100359.56;5588588;31;32767;-70
2022/07/24 05:09:00;;;;;;;6.28;5.15;;;;;;;23.93;65.16;100365.94;5575453;31;32692;-69
2022/07/24 05:12:04;;;;;;;6.00;5.37;;;;;;;23.90;65.18;100379.19;5589329;31;34912;-69
2022/07/24 05:15:07;;;;;;;9.15;5.25;;;;;;;23.80;65.82;100377.19;5589192;31;34443;-68
2022/07/24 05:18:11;;;;;;;7.03;5.70;;;;;;;23.88;65.78;100381.31;5589290;31;34067;-69
2022/07/24 05:21:16;;;;;;;7.85;5.30;;;;;;;23.75;66.18;100377.13;5588490;31;34029;-69
2022/07/24 05:24:19;;;;;;;11.27;6.10;;;;;;;23.90;66.07;100384.59;5588684;31;33908;-69
2022/07/24 05:27:22;;;;;;;8.57;5.82;;;;;;;23.88;66.36;100395.69;5587406;31;34727;-67
2022/07/24 05:30:25;;;;;;;7.93;5.82;;;;;;;23.91;66.33;100388.94;5589162;31;34000;-69
2022/07/24 05:33:27;;;;;;;10.25;5.62;;;;;;;23.90;66.41;100401.69;5588948;31;34659;-70
2022/07/24 05:36:30;;;;;;;10.45;6.15;;;;;;;24.05;66.09;100404.56;5588262;31;33939;-70
2022/07/24 05:39:33;;;;;;;34.63;8.02;;;;;;;24.04;66.17;100402.09;5588164;31;34666;-68
2022/07/24 05:42:35;;;;;;;11.23;6.40;;;;;;;24.05;66.56;100404.56;5588975;31;34168;-70
2022/07/24 05:45:38;;;;;;;7.62;5.87;;;;;;;24.02;68.20;100412.34;5588930;31;34611;-69
2022/07/24 05:48:41;;;;;;;9.30;6.25;;;;;;;24.08;67.43;100416.75;5588143;31;34272;-68
2022/07/24 05:51:44;;;;;;;10.77;6.55;;;;;;;24.10;67.36;100412.75;5588774;31;33954;-68
2022/07/24 05:54:47;;;;;;;9.70;6.50;;;;;;;24.00;68.59;100414.53;5588997;31;34090;-68
2022/07/24 05:57:51;;;;;;;8.25;6.05;;;;;;;24.20;67.37;100407.44;5588668;31;34579;-70
2022/07/24 06:00:57;;;;;;;7.70;6.30;;;;;;;24.31;66.85;100416.47;5588659;31;34666;-70
2022/07/24 06:04:11;;;;;;;9.38;6.32;;;;;;;24.40;66.53;100414.94;5562745;31;33991;-66
2022/07/24 06:07:18;;;;;;;8.23;6.10;;;;;;;24.77;65.44;100423.13;5575348;31;34698;-69
2022/07/24 06:10:22;;;;;;;11.32;6.62;;;;;;;24.99;64.27;100415.69;5587600;31;33486;-69
2022/07/24 06:13:27;;;;;;;10.02;5.82;;;;;;;25.03;63.93;100422.22;5587596;31;34816;-69
2022/07/24 06:16:30;;;;;;;8.55;6.68;;;;;;;25.31;62.69;100423.78;5587712;31;34429;-67
2022/07/24 06:19:33;;;;;;;8.88;6.32;;;;;;;25.37;62.62;100421.88;5588286;31;34041;-66
2022/07/24 06:22:36;;;;;;;9.00;5.87;;;;;;;25.22;63.48;100433.50;5588143;31;35175;-67
2022/07/24 06:25:39;;;;;;;9.32;6.18;;;;;;;25.50;63.01;100437.72;5587980;31;34813;-68
2022/07/24 06:28:41;;;;;;;8.30;6.18;;;;;;;25.67;62.09;100432.91;5587993;31;34050;-69
2022/07/24 06:31:44;;;;;;;9.57;6.35;;;;;;;25.51;61.73;100421.13;5587841;31;33936;-66
2022/07/24 06:34:47;;;;;;;9.13;6.30;;;;;;;25.59;61.16;100432.63;5587883;31;34690;-67
2022/07/24 06:37:56;;;;;;;12.77;6.77;;;;;;;25.88;60.39;100440.06;5588686;31;33977;-69
2022/07/24 06:40:59;;;;;;;8.32;6.37;;;;;;;25.60;61.17;100434.25;5590552;31;34579;-68
2022/07/24 06:44:01;;;;;;;9.60;6.43;;;;;;;25.87;59.91;100432.19;5590277;31;34348;-70
2022/07/24 06:47:05;;;;;;;8.88;6.28;;;;;;;26.15;59.57;100434.41;5590523;31;34654;-68
2022/07/24 06:50:09;;;;;;;10.65;6.47;;;;;;;26.08;59.70;100436.59;5590358;31;33896;-68
2022/07/24 06:53:11;;;;;;;13.68;6.55;;;;;;;26.29;59.46;100435.56;5590155;31;34358;-68
2022/07/24 06:56:14;;;;;;;10.48;6.53;;;;;;;26.65;57.78;100438.31;5589584;31;33838;-68
2022/07/24 06:59:17;;;;;;;8.27;6.30;;;;;;;26.47;57.89;100445.12;5589121;31;33296;-69
2022/07/24 07:02:21;;;;;;;7.72;5.87;;;;;;;26.70;57.31;100438.31;5589698;31;33920;-70
2022/07/24 07:05:24;;;;;;;9.30;6.00;;;;;;;27.10;55.54;100451.13;5588075;31;32624;-68
2022/07/24 07:08:27;;;;;;;8.77;5.80;;;;;;;26.78;54.36;100449.47;5589150;31;34753;-69
2022/07/24 07:11:31;;;;;;;11.90;6.20;;;;;;;27.08;54.02;100448.66;5589826;31;34420;-70
2022/07/24 07:14:34;;;;;;;8.20;6.55;;;;;;;27.53;51.62;100450.50;5588980;31;32953;-68
2022/07/24 07:17:39;;;;;;;9.13;6.15;;;;;;;27.72;52.14;100452.59;5576213;31;34005;-70
2022/07/24 07:20:42;;;;;;;12.00;6.10;;;;;;;27.83;51.83;100455.00;5590000;31;33962;-68
2022/07/24 07:23:45;;;;;;;8.65;6.32;;;;;;;28.17;51.12;100459.78;5590175;31;33989;-70
2022/07/24 07:26:51;;;;;;;8.10;5.97;;;;;;;27.91;51.35;100456.31;5590061;31;33905;-68
2022/07/24 07:29:54;;;;;;;9.50;6.00;;;;;;;27.93;50.81;100454.16;5589856;31;34091;-69
2022/07/24 07:32:57;;;;;;;7.85;6.00;;;;;;;28.60;49.25;100456.19;5589914;31;34574;-69
2022/07/24 07:36:00;;;;;;;6.87;5.85;;;;;;;29.20;47.32;100449.38;5576035;31;32770;-71
2022/07/24 07:39:03;;;;;;;8.82;6.00;;;;;;;29.68;45.06;100455.69;5589903;31;33924;-69
2022/07/24 07:42:06;;;;;;;9.65;5.70;;;;;;;29.84;45.59;100455.50;5589771;31;34670;-67
2022/07/24 07:45:09;;;;;;;8.07;5.70;;;;;;;29.83;44.82;100460.16;5589659;31;35040;-69
2022/07/24 07:48:12;;;;;;;7.68;5.18;;;;;;;29.97;44.79;100454.78;5589075;31;32832;-70
2022/07/24 07:51:15;;;;;;;9.90;5.20;;;;;;;30.82;42.78;100460.91;5587742;31;32601;-70
2022/07/24 07:54:25;;;;;;;6.97;5.18;;;;;;;30.93;41.74;100465.13;5588849;31;33924;-69
2022/07/24 07:57:28;;;;;;;9.00;5.30;;;;;;;31.18;40.56;100455.62;5589400;31;34618;-68
2022/07/24 08:00:51;;;;;;;6.07;4.97;;;;;;;31.43;39.26;100459.81;5588984;31;34816;-68
2022/07/24 08:03:55;;;;;;;6.97;4.53;;;;;;;30.43;40.18;100444.81;5588818;31;34574;-69
2022/07/24 08:06:58;;;;;;;7.68;5.10;;;;;;;30.85;40.35;100460.31;5588042;31;33193;-69
2022/07/24 08:10:03;;;;;;;8.15;4.78;;;;;;;31.36;38.73;100456.69;5588732;31;34185;-69
2022/07/24 08:13:14;;;;;;;8.43;5.05;;;;;;;31.67;38.10;100454.97;5589127;31;34215;-69
2022/07/24 08:16:18;;;;;;;6.60;4.72;;;;;;;31.34;38.17;100456.97;5589455;31;34490;-70
2022/07/24 08:19:20;;;;;;;8.43;5.10;;;;;;;31.68;37.37;100451.13;5588558;31;34201;-68
2022/07/24 08:22:25;;;;;;;6.68;4.78;;;;;;;32.21;36.14;100461.50;5588980;31;34680;-68
2022/07/24 08:25:28;;;;;;;8.43;4.47;;;;;;;32.60;35.25;100469.09;5588922;31;34337;-68
2022/07/24 08:28:31;;;;;;;7.85;4.90;;;;;;;31.34;37.29;100461.66;5589593;31;34053;-69
2022/07/24 08:31:35;;;;;;;6.53;5.20;;;;;;;30.32;39.35;100469.91;5589053;31;34631;-72
2022/07/24 08:34:39;;;;;;;8.63;4.80;;;;;;;30.82;38.39;100474.63;5589233;31;34315;-69
2022/07/24 08:37:42;;;;;;;7.87;5.43;;;;;;;30.60;38.40;100467.03;5589659;31;33961;-70
2022/07/24 08:40:45;;;;;;;7.20;5.43;;;;;;;30.24;40.35;100474.13;5589501;31;33983;-69
2022/07/24 08:43:48;;;;;;;6.50;5.30;;;;;;;30.91;38.19;100477.47;5575069;31;32756;-69
2022/07/24 08:46:57;;;;;;;7.03;5.30;;;;;;;31.09;37.83;100473.88;5588092;31;34336;-71
2022/07/24 08:50:05;;;;;;;7.68;5.07;;;;;;;30.52;39.32;100473.19;5588094;31;34160;-70
2022/07/24 08:53:09;;;;;;;6.43;5.00;;;;;;;30.58;39.03;100469.25;5589214;31;34045;-70
2022/07/24 08:56:13;;;;;;;8.90;5.18;;;;;;;30.34;38.30;100476.72;5588256;31;32828;-69
2022/07/24 08:59:18;;;;;;;7.00;4.85;;;;;;;30.12;38.73;100474.56;5588599;31;34602;-68
2022/07/24 09:02:27;;;;;;;5.80;4.90;;;;;;;30.88;36.55;100481.66;5587581;31;32385;-69
2022/07/24 09:05:34;;;;;;;6.50;4.90;;;;;;;30.48;36.44;100480.38;5589648;31;34029;-68
2022/07/24 09:08:59;;;;;;;6.85;4.25;;;;;;;30.46;36.75;100479.03;5588062;31;34621;-69
2022/07/24 09:12:22;;;;;;;5.37;4.72;;;;;;;30.91;35.22;100491.19;5588873;31;34903;-69
2022/07/24 09:15:29;;;;;;;5.93;4.50;;;;;;;30.02;36.66;100488.37;5589249;31;34357;-71
2022/07/24 09:18:34;;;;;;;5.85;4.35;;;;;;;30.56;36.08;100485.16;5588999;31;34292;-69
2022/07/24 09:21:38;;;;;;;5.00;4.22;;;;;;;31.00;34.95;100489.38;5589120;31;33982;-71
2022/07/24 09:24:42;;;;;;;6.78;4.32;;;;;;;31.35;33.88;100490.69;5588131;31;32688;-69
2022/07/24 09:27:57;;;;;;;5.28;4.28;;;;;;;31.11;34.60;100493.59;5589163;31;34071;-70
2022/07/24 09:31:04;;;;;;;5.50;4.18;;;;;;;32.23;32.84;100489.47;5587880;31;33168;-67
2022/07/24 09:34:09;;;;;;;9.70;4.53;;;;;;;31.75;33.86;100500.09;5587968;31;33958;-69
2022/07/24 09:37:12;;;;;;;7.53;4.50;;;;;;;32.34;33.10;100494.41;5588338;31;34476;-69
2022/07/24 09:40:21;;;;;;;7.53;4.75;;;;;;;31.77;34.11;100503.31;5588753;31;34705;-69
2022/07/24 09:43:29;;;;;;;7.87;4.20;;;;;;;31.64;34.65;100498.66;5587641;31;33894;-70
2022/07/24 09:46:36;;;;;;;5.80;4.30;;;;;;;32.66;32.44;100490.69;5588048;31;32434;-67
2022/07/24 09:49:39;;;;;;;6.75;4.72;;;;;;;33.35;31.10;100501.31;5588524;31;34114;-69
2022/07/24 09:52:44;;;;;;;6.12;4.50;;;;;;;32.76;32.20;100498.69;5588617;31;33851;-69
2022/07/24 09:56:07;;;;;;;5.10;4.57;;;;;;;31.83;33.89;100499.38;5588959;31;34899;-69
2022/07/24 09:59:12;;;;;;;5.40;4.32;;;;;;;31.96;32.93;100498.53;5587838;31;32721;-69
2022/07/24 10:02:17;;;;;;;4.55;4.15;;;;;;;32.31;33.20;100497.78;5588508;31;34376;-69
2022/07/24 10:05:22;;;;;;;8.15;4.68;;;;;;;32.72;32.10;100497.69;5587667;31;33280;-67
2022/07/24 10:08:26;;;;;;;7.97;4.32;;;;;;;32.43;31.79;100494.50;5588623;31;34655;-69
2022/07/24 10:11:34;;;;;;;5.37;4.57;;;;;;;32.66;31.70;100495.34;5587553;31;32829;-70
2022/07/24 10:14:37;;;;;;;5.87;4.18;;;;;;;32.33;32.17;100500.22;5590935;31;34275;-68
2022/07/24 10:17:40;;;;;;;7.30;4.18;;;;;;;31.83;31.89;100497.44;5590772;31;34404;-71
2022/07/24 10:20:45;;;;;;;7.68;4.18;;;;;;;32.35;31.43;100496.03;5590748;31;34338;-70
2022/07/24 10:24:00;;;;;;;6.20;3.60;;;;;;;33.07;29.70;100492.38;5577228;31;32462;-68
2022/07/24 10:27:04;;;;;;;6.85;3.83;;;;;;;32.86;29.70;100492.13;5589820;31;33178;-68
2022/07/24 10:30:10;;;;;;;4.18;3.30;;;;;;;32.98;29.66;100491.53;5590974;31;33992;-69
2022/07/24 10:33:13;;;;;;;5.68;3.37;;;;;;;32.46;29.55;100496.62;5590542;31;33971;-69
2022/07/24 10:36:21;;;;;;;4.70;3.40;;;;;;;31.79;30.16;100496.44;5590644;31;34432;-68
2022/07/24 10:39:36;;;;;;;4.18;3.78;;;;;;;32.17;29.90;100502.50;5590726;31;34278;-69
2022/07/24 10:43:05;;;;;;;4.05;3.35;;;;;;;32.76;29.36;100504.16;5589893;31;33680;-67
2022/07/24 10:46:07;;;;;;;6.18;3.83;;;;;;;31.50;30.74;100499.44;5590576;31;34639;-70
2022/07/24 10:49:47;;;;;;;4.43;3.50;;;;;;;32.50;29.67;100497.63;5590588;31;35247;-70
2022/07/24 10:52:51;;;;;;;5.20;3.70;;;;;;;32.14;29.50;100497.63;5590501;31;34050;-67
2022/07/24 10:56:28;;;;;;;6.65;3.47;;;;;;;31.53;29.27;100492.53;5590691;31;34002;-69
2022/07/24 10:59:37;;;;;;;5.22;3.80;;;;;;;31.76;29.06;100497.03;5590583;31;34771;-70
2022/07/24 11:02:55;;;;;;;5.30;3.53;;;;;;;31.77;29.68;100490.41;5589762;31;34275;-68
2022/07/24 11:06:17;;;;;;;4.22;3.72;;;;;;;31.92;29.01;100481.88;5590353;31;33970;-68
2022/07/24 11:09:23;;;;;;;7.22;4.00;;;;;;;32.97;27.76;100473.44;5589362;31;34267;-68
2022/07/24 11:12:32;;;;;;;5.50;4.20;;;;;;;33.78;27.32;100474.00;5589550;31;34034;-69
2022/07/24 11:16:15;;;;;;;4.35;3.50;;;;;;;34.14;26.56;100473.72;5590050;31;34380;-71
2022/07/24 11:19:18;;;;;;;6.05;3.10;;;;;;;34.70;25.14;100481.91;5589610;31;34360;-70
2022/07/24 11:22:38;;;;;;;4.40;3.30;;;;;;;33.42;26.99;100479.66;5590320;31;34701;-70
2022/07/24 11:25:41;;;;;;;4.30;3.40;;;;;;;33.52;26.75;100474.69;5589282;31;34254;-71
2022/07/24 11:29:16;;;;;;;3.62;3.22;;;;;;;33.86;26.50;100474.00;5589494;31;34588;-69
2022/07/24 11:32:19;;;;;;;4.93;3.78;;;;;;;34.56;25.85;100464.69;5590402;31;33994;-69
2022/07/24 11:35:36;;;;;;;3.90;3.47;;;;;;;35.03;25.56;100465.59;5576319;31;33737;-68
2022/07/24 11:38:39;;;;;;;6.37;3.17;;;;;;;35.41;24.30;100462.88;5590297;31;33932;-71
2022/07/24 11:41:47;;;;;;;6.90;3.20;;;;;;;36.77;21.04;100467.03;5590032;31;34639;-68
2022/07/24 11:44:51;;;;;;;4.55;2.90;;;;;;;37.13;21.04;100458.84;5589924;31;34703;-69
2022/07/24 11:47:55;;;;;;;5.90;2.87;;;;;;;37.08;20.76;100459.06;5590004;31;34658;-67
2022/07/24 11:51:05;;;;;;;6.25;3.25;;;;;;;35.58;22.25;100448.22;5589814;31;34192;-69
2022/07/24 11:54:30;;;;;;;4.45;3.10;;;;;;;35.26;23.21;100449.66;5589918;31;34621;-67
2022/07/24 11:57:35;;;;;;;4.75;2.80;;;;;;;36.73;21.33;100449.50;5589797;31;34245;-68
2022/07/24 12:00:58;;;;;;;3.20;2.90;;;;;;;38.84;19.65;100453.81;5589384;31;34081;-68
2022/07/24 12:04:01;;;;;;;5.32;2.78;;;;;;;38.37;19.48;100443.41;5590314;31;33979;-68
2022/07/24 12:07:17;;;;;;;3.67;2.80;;;;;;;38.47;19.84;100442.12;5589867;31;33950;-69
2022/07/24 12:10:22;;;;;;;5.03;3.05;;;;;;;37.93;20.12;100442.47;5588923;31;33248;-71
2022/07/24 12:13:26;;;;;;;5.35;3.15;;;;;;;37.07;21.10;100440.84;5589237;31;32430;-68
2022/07/24 12:16:29;;;;;;;3.10;2.65;;;;;;;36.24;22.19;100429.94;5589811;31;34047;-71
2022/07/24 12:19:33;;;;;;;3.00;2.42;;;;;;;39.04;19.45;100434.19;5589740;31;34512;-69
2022/07/24 12:22:36;;;;;;;4.00;2.50;;;;;;;39.50;18.91;100432.59;5588789;31;34683;-67
2022/07/24 12:25:41;;;;;;;3.83;2.55;;;;;;;38.70;18.93;100432.06;5588835;31;34318;-67
2022/07/24 12:28:43;;;;;;;3.08;2.62;;;;;;;39.69;18.12;100423.50;5588935;31;32699;-68
2022/07/24 12:31:46;;;;;;;4.18;2.70;;;;;;;40.11;17.96;100426.44;5589764;31;34262;-69
2022/07/24 12:34:50;;;;;;;3.83;2.50;;;;;;;42.34;16.01;100415.50;5588345;31;33358;-67
2022/07/24 12:38:29;;;;;;;3.65;2.78;;;;;;;43.10;15.36;100416.69;5589510;31;34227;-71
2022/07/24 12:41:44;;;;;;;3.78;2.30;;;;;;;41.25;16.37;100426.63;5588641;31;34034;-68
2022/07/24 12:44:52;;;;;;;2.85;2.60;;;;;;;39.93;17.34;100417.72;5589565;31;33851;-68
2022/07/24 12:48:21;;;;;;;2.62;2.17;;;;;;;42.75;14.85;100416.37;5589570;31;34050;-69
2022/07/24 12:51:27;;;;;;;3.55;2.40;;;;;;;41.29;16.03;100416.37;5589504;31;34318;-69
2022/07/24 12:54:35;;;;;;;2.67;2.40;;;;;;;40.33;16.62;100405.44;5589240;31;34655;-70
2022/07/24 12:57:39;;;;;;;2.30;2.10;;;;;;;40.25;16.42;100412.03;5589328;31;34652;-70
2022/07/24 13:00:56;;;;;;;6.32;2.40;;;;;;;41.03;14.19;100413.56;5588562;31;34841;-73
2022/07/24 13:04:01;;;;;;;4.00;1.83;;;;;;;40.87;14.56;100408.06;5588670;31;33935;-68
2022/07/24 13:07:08;;;;;;;2.97;1.83;;;;;;;43.24;12.30;100410.41;5588776;31;32298;-69
2022/07/24 13:10:11;;;;;;;2.53;2.08;;;;;;;41.78;13.14;100404.41;5589154;31;34024;-68
2022/07/24 13:13:14;;;;;;;2.08;1.73;;;;;;;43.85;11.58;100415.25;5589216;31;34908;-68
2022/07/24 13:16:17;;;;;;;2.95;2.00;;;;;;;41.47;12.52;100392.41;5588442;31;32601;-69
2022/07/24 13:19:21;;;;;;;3.05;1.85;;;;;;;42.98;11.99;100394.66;5588100;31;33057;-70
2022/07/24 13:22:24;;;;;;;2.60;1.95;;;;;;;41.60;12.99;100396.56;5575464;31;32639;-69
2022/07/24 13:25:27;;;;;;;3.30;2.12;;;;;;;42.89;12.58;100403.34;5587971;31;33393;-69
2022/07/24 13:28:30;;;;;;;2.17;1.95;;;;;;;41.60;13.28;100390.19;5588368;31;33818;-67
2022/07/24 13:31:33;;;;;;;3.80;2.20;;;;;;;41.74;13.25;100378.44;5588235;31;33377;-70
2022/07/24 13:34:35;;;;;;;2.12;1.92;;;;;;;41.11;14.13;100377.09;5588733;31;34112;-70
2022/07/24 13:37:39;;;;;;;2.70;1.90;;;;;;;41.73;14.12;100383.25;5589325;31;34013;-69
2022/07/24 13:40:42;;;;;;;3.85;2.00;;;;;;;40.77;14.18;100376.09;5589166;31;34030;-68
2022/07/24 13:43:45;;;;;;;2.78;1.95;;;;;;;40.67;13.88;100376.72;5589086;31;33966;-68
2022/07/24 13:46:49;;;;;;;2.65;1.90;;;;;;;39.79;14.86;100383.28;5574168;31;32384;-68
2022/07/24 13:49:54;;;;;;;3.15;2.00;;;;;;;39.13;15.40;100359.09;5588587;31;34083;-70
2022/07/24 13:52:59;;;;;;;3.08;1.90;;;;;;;41.72;13.80;100358.53;5588722;31;34634;-69
2022/07/24 13:56:05;;;;;;;5.22;2.72;;;;;;;42.42;13.70;100365.00;5588599;31;34111;-69
2022/07/24 13:59:08;;;;;;;2.72;1.70;;;;;;;42.16;14.10;100356.72;5587627;31;32501;-69
2022/07/24 14:02:11;;;;;;;2.55;2.15;;;;;;;43.21;13.03;100353.38;5588488;31;34172;-71
2022/07/24 14:05:14;;;;;;;2.33;1.95;;;;;;;41.67;14.13;100344.94;5588516;31;34088;-68
2022/07/24 14:08:17;;;;;;;3.95;2.25;;;;;;;42.26;13.54;100344.09;5588509;31;34008;-70
2022/07/24 14:11:20;;;;;;;2.67;1.90;;;;;;;42.52;13.57;100346.75;5588432;31;34298;-71
2022/07/24 14:14:22;;;;;;;3.58;2.53;;;;;;;41.90;13.99;100326.16;5588178;31;33973;-72
2022/07/24 14:17:25;;;;;;;3.53;2.10;;;;;;;41.52;13.83;100341.97;5588449;31;34608;-70
2022/07/24 14:20:27;;;;;;;2.17;1.92;;;;;;;40.62;14.78;100338.09;5588124;31;33977;-71